createdAt,value
2022-09-07T02:30:17.633Z,1016.85
2022-09-07T02:31:17.663Z,1017.14
2022-09-07T02:32:17.582Z,1017.07
2022-09-07T02:33:17.599Z,1017.09
2022-09-07T02:34:17.583Z,1017.01
2022-09-07T02:35:17.603Z,1016.97
2022-09-07T02:36:17.589Z,1017.07
2022-09-07T02:37:17.596Z,1017.09
2022-09-07T02:38:17.587Z,1017.09
2022-09-07T02:39:17.598Z,1016.91
2022-09-07T02:40:17.614Z,1016.95
2022-09-07T02:41:17.602Z,1016.96
2022-09-07T02:42:17.607Z,1016.94
2022-09-07T02:43:17.597Z,1017.03
2022-09-07T02:44:17.600Z,1016.98
2022-09-07T02:45:17.612Z,1016.95
2022-09-07T02:46:17.662Z,1017.01
2022-09-07T02:47:17.604Z,1016.97
2022-09-07T02:48:17.601Z,1017.02
2022-09-07T02:49:17.604Z,1016.95
2022-09-07T02:50:17.614Z,1016.76
2022-09-07T02:51:17.599Z,1016.76
2022-09-07T02:52:17.604Z,1016.71
2022-09-07T02:53:17.597Z,1016.82
2022-09-07T02:54:17.599Z,1016.72
2022-09-07T02:55:17.616Z,1016.71
2022-09-07T02:56:17.600Z,1016.64
2022-09-07T02:57:17.600Z,1016.71
2022-09-07T02:58:17.601Z,1016.88
2022-09-07T02:59:17.604Z,1016.78
2022-09-07T03:00:17.604Z,1016.74
2022-09-07T03:01:17.657Z,1016.75
2022-09-07T03:02:17.601Z,1016.71
2022-09-07T03:03:17.597Z,1016.72
2022-09-07T03:04:17.608Z,1016.91
2022-09-07T03:05:17.601Z,1016.86
2022-09-07T03:06:17.605Z,1016.86
2022-09-07T03:07:17.602Z,1016.83
2022-09-07T03:08:17.602Z,1016.78
2022-09-07T03:09:17.603Z,1016.79
2022-09-07T03:10:17.601Z,1016.74
2022-09-07T03:11:17.611Z,1016.72
2022-09-07T03:12:17.603Z,1016.7
2022-09-07T03:13:17.607Z,1016.76
2022-09-07T03:14:17.606Z,1016.67
2022-09-07T03:15:17.604Z,1016.71
2022-09-07T03:16:17.677Z,1016.52
2022-09-07T03:17:17.606Z,1016.5
2022-09-07T03:18:17.612Z,1016.5
2022-09-07T03:19:17.615Z,1016.68
2022-09-07T03:20:17.605Z,1016.66
2022-09-07T03:21:17.640Z,1016.6
2022-09-07T03:22:17.611Z,1016.6
2022-09-07T03:23:17.611Z,1016.36
2022-09-07T03:24:17.609Z,1016.56
2022-09-07T03:25:17.610Z,1016.51
2022-09-07T03:26:17.602Z,1016.34
2022-09-07T03:27:17.610Z,1016.34
2022-09-07T03:28:17.611Z,1016.36
2022-09-07T03:29:17.597Z,1016.39
2022-09-07T03:30:17.633Z,1016.39
2022-09-07T03:31:17.685Z,1016.42
2022-09-07T03:32:17.589Z,1016.58
2022-09-07T03:33:17.595Z,1016.59
2022-09-07T03:34:17.602Z,1016.57
2022-09-07T03:35:17.609Z,1016.59
2022-09-07T03:36:17.592Z,1016.61
2022-09-07T03:37:17.591Z,1016.65
2022-09-07T03:38:17.588Z,1016.64
2022-09-07T03:39:17.593Z,1016.66
2022-09-07T03:40:17.608Z,1016.64
2022-09-07T03:41:17.589Z,1016.59
2022-09-07T03:42:17.599Z,1016.66
2022-09-07T03:43:17.591Z,1016.45
2022-09-07T03:44:17.607Z,1016.52
2022-09-07T03:45:17.672Z,1016.63
2022-09-07T03:46:17.655Z,1016.66
2022-09-07T03:47:17.608Z,1016.64
2022-09-07T03:48:17.602Z,1016.69
2022-09-07T03:49:17.592Z,1016.64
2022-09-07T03:50:17.605Z,1016.63
2022-09-07T03:51:17.605Z,1016.73
2022-09-07T03:52:17.587Z,1016.65
2022-09-07T03:53:17.616Z,1016.55
2022-09-07T03:54:17.605Z,1016.73
2022-09-07T03:55:17.606Z,1016.63
2022-09-07T03:56:17.607Z,1016.68
2022-09-07T03:57:17.588Z,1016.64
2022-09-07T03:58:17.608Z,1016.7
2022-09-07T03:59:17.602Z,1016.67
2022-09-07T04:00:17.640Z,1016.73
2022-09-07T04:01:17.671Z,1016.71
2022-09-07T04:02:17.716Z,1016.65
2022-09-07T04:03:17.609Z,1016.51
2022-09-07T04:04:17.616Z,1016.53
2022-09-07T04:05:17.601Z,1016.55
2022-09-07T04:06:17.611Z,1016.58
2022-09-07T04:07:17.608Z,1016.54
2022-09-07T04:08:17.606Z,1016.59
2022-09-07T04:09:17.594Z,1016.59
2022-09-07T04:10:17.603Z,1016.54
2022-09-07T04:11:17.606Z,1016.57
2022-09-07T04:12:17.602Z,1016.59
2022-09-07T04:13:17.612Z,1016.5
2022-09-07T04:14:17.611Z,1016.56
2022-09-07T04:15:17.606Z,1016.52
2022-09-07T04:16:17.706Z,1016.47
2022-09-07T04:17:17.611Z,1016.54
2022-09-07T04:18:17.612Z,1016.54
2022-09-07T04:19:17.610Z,1016.47
2022-09-07T04:20:17.606Z,1016.51
2022-09-07T04:21:17.610Z,1016.45
2022-09-07T04:22:17.608Z,1016.36
2022-09-07T04:23:17.607Z,1016.66
2022-09-07T04:24:17.606Z,1016.64
2022-09-07T04:25:17.609Z,1016.54
2022-09-07T04:26:17.605Z,1016.47
2022-09-07T04:27:17.612Z,1016.45
2022-09-07T04:28:17.608Z,1016.43
2022-09-07T04:29:17.601Z,1016.43
2022-09-07T04:30:17.618Z,1016.38
2022-09-07T04:31:17.672Z,1016.63
2022-09-07T04:32:17.606Z,1016.63
2022-09-07T04:33:17.607Z,1016.6
2022-09-07T04:34:17.611Z,1016.68
2022-09-07T04:35:17.606Z,1016.64
2022-09-07T04:36:17.592Z,1016.63
2022-09-07T04:37:17.762Z,1016.6
2022-09-07T04:38:17.607Z,1016.58
2022-09-07T04:39:17.614Z,1016.58
2022-09-07T04:40:17.629Z,1016.64
2022-09-07T04:41:17.605Z,1016.61
2022-09-07T04:42:17.609Z,1016.63
2022-09-07T04:43:17.590Z,1016.61
2022-09-07T04:44:17.592Z,1016.62
2022-09-07T04:45:17.612Z,1016.69
2022-09-07T04:46:17.711Z,1016.7
2022-09-07T04:47:17.587Z,1016.68
2022-09-07T04:48:17.591Z,1016.64
2022-09-07T04:49:17.606Z,1016.67
2022-09-07T04:50:17.611Z,1016.76
2022-09-07T04:51:17.593Z,1016.65
2022-09-07T04:52:17.592Z,1016.57
2022-09-07T04:53:17.584Z,1016.58
2022-09-07T04:54:17.592Z,1016.57
2022-09-07T04:55:17.639Z,1016.53
2022-09-07T04:56:17.586Z,1016.56
2022-09-07T04:57:17.604Z,1016.56
2022-09-07T04:58:17.603Z,1016.52
2022-09-07T04:59:17.611Z,1016.55
2022-09-07T05:00:17.624Z,1016.51
2022-09-07T05:01:17.701Z,1016.49
2022-09-07T05:02:17.665Z,1016.6
2022-09-07T05:03:17.601Z,1016.59
2022-09-07T05:04:17.611Z,1016.38
2022-09-07T05:05:17.606Z,1016.5
2022-09-07T05:06:17.609Z,1016.55
2022-09-07T05:07:17.602Z,1016.55
2022-09-07T05:08:17.663Z,1016.65
2022-09-07T05:09:17.601Z,1016.43
2022-09-07T05:10:17.608Z,1016.43
2022-09-07T05:11:17.602Z,1016.52
2022-09-07T05:12:17.610Z,1016.42
2022-09-07T05:13:17.605Z,1016.49
2022-09-07T05:14:17.609Z,1016.5
2022-09-07T05:15:17.606Z,1016.43
2022-09-07T05:16:17.701Z,1016.47
2022-09-07T05:17:17.608Z,1016.51
2022-09-07T05:18:17.604Z,1016.51
2022-09-07T05:19:17.604Z,1016.45
2022-09-07T05:20:20.259Z,1016.46
2022-09-07T05:21:17.594Z,1016.42
2022-09-07T05:22:17.613Z,1016.41
2022-09-07T05:23:17.583Z,1016.42
2022-09-07T05:24:17.610Z,1016.36
2022-09-07T05:25:17.603Z,1016.39
2022-09-07T05:26:17.611Z,1016.4
2022-09-07T05:27:17.598Z,1016.35
2022-09-07T05:28:19.584Z,1016.34
2022-09-07T05:31:18.321Z,1016.4
2022-09-07T05:32:17.605Z,1016.38
2022-09-07T05:33:17.609Z,1016.4
2022-09-07T05:34:33.150Z,1016.39
2022-09-07T05:35:17.605Z,1016.36
2022-09-07T05:36:17.603Z,1016.38
2022-09-07T05:37:17.602Z,1016.33
2022-09-07T05:38:17.608Z,1016.27
2022-09-07T05:39:17.607Z,1016.36
2022-09-07T05:40:17.840Z,1016.32
2022-09-07T05:41:17.606Z,1016.33
2022-09-07T05:42:17.597Z,1016.31
2022-09-07T05:43:17.610Z,1016.3
2022-09-07T05:44:45.613Z,1016.32
2022-09-07T05:45:17.604Z,1016.32
2022-09-07T05:46:17.698Z,1016.32
2022-09-07T05:47:17.607Z,1016.31
2022-09-07T05:48:17.594Z,1016.3
2022-09-07T05:49:17.587Z,1016.3
2022-09-07T05:50:17.613Z,1016.29
2022-09-07T05:51:17.622Z,1016.32
2022-09-07T05:52:17.603Z,1016.28
2022-09-07T05:53:17.589Z,1016.26
2022-09-07T05:54:17.591Z,1016.28
2022-09-07T05:55:29.315Z,1016.29
2022-09-07T05:56:17.595Z,1016.25
2022-09-07T05:57:17.591Z,1016.31
2022-09-07T05:58:17.600Z,1016.36
2022-09-07T05:59:17.595Z,1016.36
2022-09-07T06:00:17.643Z,1016.42
2022-09-07T06:01:17.586Z,1016.36
2022-09-07T06:02:17.735Z,1016.45
2022-09-07T06:03:17.791Z,1016.42
2022-09-07T06:04:17.590Z,1016.41
2022-09-07T06:05:17.608Z,1016.42
2022-09-07T06:06:17.590Z,1016.4
2022-09-07T06:07:22.055Z,1016.4
2022-09-07T06:08:17.586Z,1016.43
2022-09-07T06:09:17.602Z,1016.48
2022-09-07T06:10:45.340Z,1016.47
2022-09-07T06:11:17.594Z,1016.53
2022-09-07T06:12:17.593Z,1016.48
2022-09-07T06:13:17.605Z,1016.69
2022-09-07T06:14:17.603Z,1016.71
2022-09-07T06:15:17.616Z,1016.72
2022-09-07T06:16:17.690Z,1016.7
2022-09-07T06:17:17.605Z,1016.72
2022-09-07T06:18:17.585Z,1016.72
2022-09-07T06:19:17.613Z,1016.66
2022-09-07T06:20:17.606Z,1016.66
2022-09-07T06:21:17.593Z,1016.61
2022-09-07T06:22:17.607Z,1016.64
2022-09-07T06:23:17.609Z,1016.66
2022-09-07T06:24:17.599Z,1016.65
2022-09-07T06:25:17.608Z,1016.64
2022-09-07T06:26:17.591Z,1016.61
2022-09-07T06:27:17.598Z,1016.59
2022-09-07T06:28:17.612Z,1016.55
2022-09-07T06:29:17.595Z,1016.58
2022-09-07T06:30:17.618Z,1016.6
2022-09-07T06:31:17.637Z,1016.61
2022-09-07T06:32:43.900Z,1016.53
2022-09-07T06:33:21.406Z,1016.54
2022-09-07T06:34:17.601Z,1016.55
2022-09-07T06:35:17.606Z,1016.58
2022-09-07T06:36:17.588Z,1016.55
2022-09-07T06:37:17.613Z,1016.61
2022-09-07T06:38:17.608Z,1016.62
2022-09-07T06:39:17.612Z,1016.59
2022-09-07T06:40:17.639Z,1016.6
2022-09-07T06:42:17.602Z,1016.62
2022-09-07T06:43:17.598Z,1016.5
2022-09-07T06:44:17.610Z,1016.51
2022-09-07T06:45:17.604Z,1016.56
2022-09-07T06:47:17.606Z,1016.48
2022-09-07T06:48:17.606Z,1016.47
2022-09-07T06:49:17.608Z,1016.43
2022-09-07T06:50:17.616Z,1016.46
2022-09-07T06:51:17.609Z,1016.46
2022-09-07T06:52:17.611Z,1016.43
2022-09-07T06:55:17.605Z,1016.4
2022-09-07T06:56:17.613Z,1016.34
2022-09-07T06:57:17.608Z,1016.36
2022-09-07T06:58:17.609Z,1016.39
2022-09-07T06:59:17.604Z,1016.35
2022-09-07T07:00:17.607Z,1016.33
2022-09-07T07:01:17.668Z,1016.25
2022-09-07T07:02:17.601Z,1016.26
2022-09-07T07:03:17.626Z,1016.24
2022-09-07T07:04:17.608Z,1016.28
2022-09-07T07:05:17.602Z,1016.22
2022-09-07T07:06:17.607Z,1016.2
2022-09-07T07:07:17.602Z,1016.16
2022-09-07T07:08:17.588Z,1016.2
2022-09-07T07:09:17.595Z,1016.2
2022-09-07T07:10:22.140Z,1016.19
2022-09-07T07:11:17.590Z,1016.23
2022-09-07T07:14:17.589Z,1016.25
2022-09-07T07:15:17.605Z,1016.19
2022-09-07T07:16:17.642Z,1016.29
2022-09-07T07:17:17.588Z,1016.35
2022-09-07T07:18:21.305Z,1016.35
2022-09-07T07:19:17.586Z,1016.33
2022-09-07T07:20:17.627Z,1016.37
2022-09-07T07:21:17.586Z,1016.34
2022-09-07T07:22:43.011Z,1016.3
2022-09-07T07:23:17.587Z,1016.33
2022-09-07T07:24:17.586Z,1016.3
2022-09-07T07:25:17.609Z,1016.33
2022-09-07T07:26:17.682Z,1016.4
2022-09-07T07:27:17.626Z,1016.32
2022-09-07T07:29:18.844Z,1016.19
2022-09-07T07:30:17.631Z,1016.21
2022-09-07T07:31:17.609Z,1016.42
2022-09-07T07:32:17.604Z,1016.39
2022-09-07T07:33:17.604Z,1016.31
2022-09-07T07:34:17.669Z,1016.41
2022-09-07T07:35:17.603Z,1016.3
2022-09-07T07:36:17.593Z,1016.3
2022-09-07T07:37:17.608Z,1016.23
2022-09-07T07:40:19.948Z,1016.26
2022-09-07T07:42:17.592Z,1016.3
2022-09-07T07:43:17.607Z,1016.34
2022-09-07T07:44:17.605Z,1016.28
2022-09-07T07:46:17.623Z,1016.3
2022-09-07T07:47:17.608Z,1016.22
2022-09-07T07:48:17.604Z,1016.23
2022-09-07T07:49:17.606Z,1016.48
2022-09-07T07:50:33.763Z,1016.54
2022-09-07T07:51:17.589Z,1016.47
2022-09-07T07:53:42.595Z,1016.44
2022-09-07T07:54:17.612Z,1016.43
2022-09-07T07:55:43.616Z,1016.47
2022-09-07T07:56:17.603Z,1016.27
2022-09-07T07:57:17.606Z,1016.22
2022-09-07T07:58:17.606Z,1016.25
2022-09-07T07:59:17.606Z,1016.23
2022-09-07T08:00:27.468Z,1016.24
2022-09-07T08:01:17.646Z,1016.25
2022-09-07T08:02:17.711Z,1016.25
2022-09-07T08:03:17.605Z,1016.24
2022-09-07T08:04:17.604Z,1016.24
2022-09-07T08:05:17.601Z,1016.24
2022-09-07T08:06:17.606Z,1016.21
2022-09-07T08:07:17.611Z,1016.23
2022-09-07T08:08:17.610Z,1016.2
2022-09-07T08:09:17.601Z,1016.16
2022-09-07T08:10:17.629Z,1016.17
2022-09-07T08:11:17.586Z,1016.11
2022-09-07T08:12:17.634Z,1016.16
2022-09-07T08:13:17.619Z,1016.13
2022-09-07T08:14:17.609Z,1016.21
2022-09-07T08:15:17.610Z,1016.16
2022-09-07T08:16:17.653Z,1016.15
2022-09-07T08:17:17.612Z,1016.34
2022-09-07T08:18:17.633Z,1016.34
2022-09-07T08:19:17.596Z,1016.35
2022-09-07T08:20:17.601Z,1016.34
2022-09-07T08:21:17.619Z,1016.36
2022-09-07T08:22:17.606Z,1016.33
2022-09-07T08:23:17.585Z,1016.28
2022-09-07T08:24:17.592Z,1016.34
2022-09-07T08:25:17.602Z,1016.34
2022-09-07T08:26:17.593Z,1016.39
2022-09-07T08:27:17.600Z,1016.15
2022-09-07T08:28:17.592Z,1016.1
2022-09-07T08:29:17.590Z,1016.13
2022-09-07T08:30:17.648Z,1016.09
2022-09-07T08:31:17.710Z,1016.06
2022-09-07T08:32:17.592Z,1016.1
2022-09-07T08:33:17.593Z,1016.04
2022-09-07T08:34:17.589Z,1016.07
2022-09-07T08:35:17.610Z,1016.07
2022-09-07T08:36:17.595Z,1016.01
2022-09-07T08:37:17.596Z,1016
2022-09-07T08:38:20.920Z,1016.03
2022-09-07T08:39:17.587Z,1016
2022-09-07T08:40:17.818Z,1015.98
2022-09-07T08:41:17.591Z,1016.02
2022-09-07T08:42:17.593Z,1015.97
2022-09-07T08:43:17.591Z,1016
2022-09-07T08:44:17.611Z,1015.95
2022-09-07T08:45:17.600Z,1015.93
2022-09-07T08:46:17.643Z,1015.9
2022-09-07T08:47:17.605Z,1015.98
2022-09-07T08:48:17.602Z,1015.98
2022-09-07T08:49:17.608Z,1016.01
2022-09-07T08:50:17.606Z,1016
2022-09-07T08:51:22.358Z,1015.99
2022-09-07T08:52:17.609Z,1015.96
2022-09-07T08:53:17.610Z,1015.94
2022-09-07T08:54:17.614Z,1015.94
2022-09-07T08:55:17.615Z,1015.91
2022-09-07T08:56:17.591Z,1015.9
2022-09-07T08:57:21.109Z,1015.89
2022-09-07T08:58:38.549Z,1015.85
2022-09-07T08:59:17.602Z,1015.81
2022-09-07T09:00:17.630Z,1015.87
2022-09-07T09:01:33.351Z,1015.85
2022-09-07T09:02:38.379Z,1015.82
2022-09-07T09:03:31.978Z,1015.82
2022-09-07T09:04:18.791Z,1015.81
2022-09-07T09:06:11.775Z,1015.84
2022-09-07T09:06:17.749Z,1015.81
2022-09-07T09:07:17.613Z,1015.83
2022-09-07T09:08:17.607Z,1015.84
2022-09-07T09:09:17.612Z,1015.95
2022-09-07T09:10:17.610Z,1015.93
2022-09-07T09:11:17.591Z,1015.93
2022-09-07T09:12:17.604Z,1015.94
2022-09-07T09:13:17.607Z,1015.96
2022-09-07T09:14:17.649Z,1015.93
2022-09-07T09:15:17.622Z,1015.92
2022-09-07T09:16:17.760Z,1015.93
2022-09-07T09:17:17.671Z,1015.89
2022-09-07T09:18:17.610Z,1015.89
2022-09-07T09:19:17.604Z,1015.95
2022-09-07T09:20:17.620Z,1015.98
2022-09-07T09:21:17.591Z,1015.97
2022-09-07T09:22:17.628Z,1015.96
2022-09-07T09:23:17.605Z,1016.08
2022-09-07T09:24:17.606Z,1016.03
2022-09-07T09:25:17.606Z,1016.03
2022-09-07T09:26:17.586Z,1016.01
2022-09-07T09:27:17.606Z,1015.98
2022-09-07T09:28:17.585Z,1015.93
2022-09-07T09:29:17.598Z,1015.98
2022-09-07T09:30:17.608Z,1016.03
2022-09-07T09:31:17.671Z,1016
2022-09-07T09:32:17.609Z,1016.03
2022-09-07T09:33:17.610Z,1015.98
2022-09-07T09:34:17.626Z,1015.97
2022-09-07T09:35:17.606Z,1015.95
2022-09-07T09:36:17.591Z,1016.08
2022-09-07T09:37:17.658Z,1015.97
2022-09-07T09:38:17.606Z,1015.98
2022-09-07T09:39:17.612Z,1015.92
2022-09-07T09:40:17.836Z,1015.91
2022-09-07T09:41:17.637Z,1015.82
2022-09-07T09:42:17.615Z,1015.82
2022-09-07T09:43:17.592Z,1015.77
2022-09-07T09:44:17.586Z,1015.8
2022-09-07T09:45:17.609Z,1015.79
2022-09-07T09:46:17.585Z,1015.7
2022-09-07T09:47:32.132Z,1015.87
2022-09-07T09:48:17.591Z,1015.8
2022-09-07T09:49:17.586Z,1015.73
2022-09-07T09:52:29.363Z,1015.68
2022-09-07T09:52:41.848Z,1015.6
2022-09-07T09:53:17.588Z,1015.58
2022-09-07T09:54:17.590Z,1015.58
2022-09-07T09:55:33.906Z,1015.53
2022-09-07T09:56:17.585Z,1015.48
2022-09-07T09:57:17.593Z,1015.52
2022-09-07T10:00:28.015Z,1015.59
2022-09-07T10:01:21.784Z,1015.64
2022-09-07T10:04:18.423Z,1015.64
2022-09-07T10:05:17.597Z,1015.55
2022-09-07T10:06:17.587Z,1015.57
2022-09-07T10:07:17.596Z,1015.54
2022-09-07T10:08:17.589Z,1015.58
2022-09-07T10:09:17.599Z,1015.55
2022-09-07T10:10:17.625Z,1015.52
2022-09-07T10:11:17.618Z,1015.5
2022-09-07T10:12:17.606Z,1015.57
2022-09-07T10:13:17.600Z,1015.63
2022-09-07T10:14:17.596Z,1015.51
2022-09-07T10:15:17.610Z,1015.55
2022-09-07T10:16:17.707Z,1015.53
2022-09-07T10:17:17.603Z,1015.54
2022-09-07T10:18:17.605Z,1015.54
2022-09-07T10:19:17.611Z,1015.52
2022-09-07T10:20:17.608Z,1015.51
2022-09-07T10:21:17.587Z,1015.46
2022-09-07T10:22:17.597Z,1015.49
2022-09-07T10:23:17.609Z,1015.5
2022-09-07T10:24:17.611Z,1015.49
2022-09-07T10:25:17.601Z,1015.52
2022-09-07T10:26:17.589Z,1015.43
2022-09-07T10:27:17.602Z,1015.54
2022-09-07T10:28:17.604Z,1015.47
2022-09-07T10:29:17.608Z,1015.47
2022-09-07T10:30:17.615Z,1015.44
2022-09-07T10:31:17.650Z,1015.39
2022-09-07T10:32:17.668Z,1015.39
2022-09-07T10:33:17.591Z,1015.43
2022-09-07T10:34:27.817Z,1015.44
2022-09-07T10:35:18.706Z,1015.39
2022-09-07T10:36:17.594Z,1015.35
2022-09-07T10:37:17.600Z,1015.39
2022-09-07T10:38:17.602Z,1015.34
2022-09-07T10:39:17.598Z,1015.32
2022-09-07T10:40:17.737Z,1015.48
2022-09-07T10:41:17.581Z,1015.28
2022-09-07T10:42:17.608Z,1015.31
2022-09-07T10:43:21.426Z,1015.29
2022-09-07T10:44:17.607Z,1015.29
2022-09-07T10:45:17.594Z,1015.38
2022-09-07T10:46:56.263Z,1015.31
2022-09-07T10:47:17.654Z,1015.32
2022-09-07T10:48:17.610Z,1015.29
2022-09-07T10:49:17.608Z,1015.28
2022-09-07T10:50:24.373Z,1015.45
2022-09-07T10:51:17.605Z,1015.39
2022-09-07T10:52:17.605Z,1015.32
2022-09-07T10:53:39.544Z,1015.2
2022-09-07T10:54:31.899Z,1015.27
2022-09-07T10:55:17.699Z,1015.27
2022-09-07T10:56:17.589Z,1015.35
2022-09-07T10:57:17.586Z,1015.28
2022-09-07T10:58:17.799Z,1015.24
2022-09-07T10:59:17.584Z,1015.21
2022-09-07T11:00:17.599Z,1015.44
2022-09-07T11:01:17.642Z,1015.26
2022-09-07T11:02:17.635Z,1015.32
2022-09-07T11:03:25.544Z,1015.39
2022-09-07T11:04:17.583Z,1015.19
2022-09-07T11:05:17.589Z,1015.2
2022-09-07T11:06:17.595Z,1015.21
2022-09-07T11:07:17.590Z,1015.21
2022-09-07T11:08:17.594Z,1015.25
2022-09-07T11:09:18.458Z,1015.25
2022-09-07T11:10:17.603Z,1015.18
2022-09-07T11:11:17.849Z,1015.15
2022-09-07T11:12:17.602Z,1015.18
2022-09-07T11:13:17.602Z,1015.27
2022-09-07T11:14:17.611Z,1015.23
2022-09-07T11:15:17.600Z,1015.17
2022-09-07T11:17:17.614Z,1015.1
2022-09-07T11:18:17.603Z,1015.1
2022-09-07T11:19:37.219Z,1015.12
2022-09-07T11:20:17.661Z,1015.07
2022-09-07T11:21:56.085Z,1015.06
2022-09-07T11:22:17.609Z,1015.12
2022-09-07T11:23:17.635Z,1015.18
2022-09-07T11:24:17.602Z,1015.14
2022-09-07T11:25:31.464Z,1015.1
2022-09-07T11:26:17.582Z,1015.17
2022-09-07T11:27:17.603Z,1015.12
2022-09-07T11:28:17.602Z,1015.13
2022-09-07T11:29:30.758Z,1015.24
2022-09-07T11:30:17.609Z,1015.29
2022-09-07T11:31:17.655Z,1015.18
2022-09-07T11:32:17.612Z,1015.18
2022-09-07T11:33:17.611Z,1015.25
2022-09-07T11:34:24.982Z,1015.19
2022-09-07T11:35:17.596Z,1015.15
2022-09-07T11:36:17.582Z,1015.16
2022-09-07T11:37:17.596Z,1015.15
2022-09-07T11:38:17.597Z,1015.13
2022-09-07T11:39:17.597Z,1015.23
2022-09-07T11:40:17.669Z,1015.18
2022-09-07T11:41:17.596Z,1015.2
2022-09-07T11:42:43.814Z,1015.2
2022-09-07T11:43:17.601Z,1015.16
2022-09-07T11:44:17.605Z,1015.1
2022-09-07T11:45:17.597Z,1015.1
2022-09-07T11:46:17.635Z,1015.18
2022-09-07T11:47:17.589Z,1015.19
2022-09-07T11:48:19.625Z,1015.19
2022-09-07T11:49:17.598Z,1015.19
2022-09-07T11:50:17.610Z,1015.17
2022-09-07T11:51:17.587Z,1015.13
2022-09-07T11:52:17.597Z,1015.15
2022-09-07T11:53:17.609Z,1015.13
2022-09-07T11:54:17.609Z,1015.2
2022-09-07T11:55:17.604Z,1015.15
2022-09-07T11:56:17.617Z,1015.14
2022-09-07T11:57:17.602Z,1015.19
2022-09-07T11:58:17.601Z,1015.03
2022-09-07T11:59:17.599Z,1015.09
2022-09-07T12:00:17.615Z,1015.12
2022-09-07T12:01:17.601Z,1015.21
2022-09-07T12:02:17.682Z,1015.05
2022-09-07T12:03:20.941Z,1015.1
2022-09-07T12:04:17.655Z,1015.08
2022-09-07T12:05:17.602Z,1015.1
2022-09-07T12:06:17.587Z,1015.06
2022-09-07T12:07:17.583Z,1015.03
2022-09-07T12:08:17.603Z,1015.12
2022-09-07T12:09:17.591Z,1015.06
2022-09-07T12:10:17.610Z,1015.04
2022-09-07T12:11:22.607Z,1015.01
2022-09-07T12:12:17.586Z,1015.03
2022-09-07T12:13:17.586Z,1014.99
2022-09-07T12:14:17.586Z,1014.98
2022-09-07T12:15:17.602Z,1014.97
2022-09-07T12:16:17.640Z,1014.99
2022-09-07T12:17:17.587Z,1015.13
2022-09-07T12:18:17.592Z,1015.13
2022-09-07T12:19:17.594Z,1014.82
2022-09-07T12:20:17.639Z,1014.81
2022-09-07T12:21:17.582Z,1014.85
2022-09-07T12:22:17.583Z,1014.83
2022-09-07T12:23:17.602Z,1014.77
2022-09-07T12:24:17.595Z,1014.78
2022-09-07T12:25:17.611Z,1014.7
2022-09-07T12:26:17.602Z,1014.7
2022-09-07T12:27:17.591Z,1014.7
2022-09-07T12:28:21.714Z,1014.69
2022-09-07T12:29:17.601Z,1014.66
2022-09-07T12:30:17.612Z,1014.66
2022-09-07T12:31:17.624Z,1014.58
2022-09-07T12:33:17.615Z,1014.67
2022-09-07T12:34:17.611Z,1014.7
2022-09-07T12:35:17.602Z,1014.8
2022-09-07T12:36:17.591Z,1014.7
2022-09-07T12:37:17.613Z,1014.73
2022-09-07T12:38:17.614Z,1014.78
2022-09-07T12:39:17.595Z,1014.83
2022-09-07T12:40:17.748Z,1014.8
2022-09-07T12:41:17.588Z,1014.84
2022-09-07T12:43:17.605Z,1014.78
2022-09-07T12:44:17.599Z,1014.81
2022-09-07T12:45:17.600Z,1014.87
2022-09-07T12:46:17.719Z,1014.8
2022-09-07T12:47:17.584Z,1014.79
2022-09-07T12:48:17.635Z,1014.77
2022-09-07T12:49:17.603Z,1014.73
2022-09-07T12:50:17.893Z,1014.77
2022-09-07T12:51:59.617Z,1014.88
2022-09-07T12:52:17.608Z,1014.82
2022-09-07T12:53:17.604Z,1014.92
2022-09-07T12:54:17.617Z,1014.78
2022-09-07T12:55:27.942Z,1014.77
2022-09-07T12:56:17.997Z,1014.85
2022-09-07T12:57:31.273Z,1014.81
2022-09-07T12:58:17.619Z,1014.77
2022-09-07T12:59:19.867Z,1014.81
2022-09-07T13:00:17.632Z,1014.87
2022-09-07T13:01:17.757Z,1014.89
2022-09-07T13:02:18.285Z,1014.85
2022-09-07T13:04:17.609Z,1014.81
2022-09-07T13:05:17.602Z,1014.92
2022-09-07T13:06:17.807Z,1014.78
2022-09-07T13:07:17.612Z,1014.88
2022-09-07T13:08:17.619Z,1014.86
2022-09-07T13:09:17.602Z,1014.84
2022-09-07T13:10:17.635Z,1014.96
2022-09-07T13:11:17.584Z,1014.92
2022-09-07T13:12:52.794Z,1014.95
2022-09-07T13:13:17.808Z,1014.91
2022-09-07T13:14:18.223Z,1014.92
2022-09-07T13:15:24.077Z,1014.86
2022-09-07T13:16:17.789Z,1014.93
2022-09-07T13:17:17.730Z,1014.91
2022-09-07T13:18:17.587Z,1014.91
2022-09-07T13:19:17.583Z,1014.91
2022-09-07T13:20:17.599Z,1014.96
2022-09-07T13:21:17.588Z,1014.98
2022-09-07T13:22:17.580Z,1014.96
2022-09-07T13:23:17.580Z,1014.95
2022-09-07T13:24:46.680Z,1014.97
2022-09-07T13:25:17.601Z,1014.91
2022-09-07T13:26:17.673Z,1014.92
2022-09-07T13:27:17.587Z,1014.91
2022-09-07T13:28:17.597Z,1014.76
2022-09-07T13:29:17.671Z,1014.89
2022-09-07T13:30:17.628Z,1014.84
2022-09-07T13:31:17.674Z,1014.86
2022-09-07T13:32:17.587Z,1014.77
2022-09-07T13:33:17.582Z,1014.77
2022-09-07T13:34:17.584Z,1014.91
2022-09-07T13:35:17.596Z,1014.8
2022-09-07T13:36:17.585Z,1014.81
2022-09-07T13:37:17.581Z,1014.79
2022-09-07T13:38:17.677Z,1014.81
2022-09-07T13:39:17.618Z,1014.79
2022-09-07T13:40:17.812Z,1014.79
2022-09-07T13:41:17.587Z,1014.79
2022-09-07T13:42:17.600Z,1014.81
2022-09-07T13:43:17.609Z,1014.81
2022-09-07T13:44:17.598Z,1014.78
2022-09-07T13:45:17.603Z,1014.76
2022-09-07T13:46:17.691Z,1014.63
2022-09-07T13:47:17.593Z,1014.59
2022-09-07T13:48:17.582Z,1014.53
2022-09-07T13:49:17.606Z,1014.45
2022-09-07T13:50:17.602Z,1014.49
2022-09-07T13:51:17.582Z,1014.51
2022-09-07T13:52:17.596Z,1014.49
2022-09-07T13:53:17.603Z,1014.55
2022-09-07T13:54:17.622Z,1014.5
2022-09-07T13:55:17.603Z,1014.46
2022-09-07T13:56:17.587Z,1014.49
2022-09-07T13:57:17.603Z,1014.48
2022-09-07T13:58:17.597Z,1014.51
2022-09-07T13:59:17.603Z,1014.47
2022-09-07T14:00:17.604Z,1014.46
2022-09-07T14:01:17.631Z,1014.44
2022-09-07T14:02:17.670Z,1014.46
2022-09-07T14:03:17.587Z,1014.45
2022-09-07T14:04:17.616Z,1014.42
2022-09-07T14:05:17.603Z,1014.41
2022-09-07T14:06:17.587Z,1014.44
2022-09-07T14:07:23.507Z,1014.34
2022-09-07T14:08:22.155Z,1014.28
2022-09-07T14:09:22.147Z,1014.37
2022-09-07T14:10:22.195Z,1014.34
2022-09-07T14:11:22.129Z,1014.42
2022-09-07T14:12:22.145Z,1014.46
2022-09-07T14:13:22.136Z,1014.5
2022-09-07T14:14:22.144Z,1014.48
2022-09-07T14:15:22.383Z,1014.43
2022-09-07T14:16:22.160Z,1014.42
2022-09-07T14:17:22.149Z,1014.37
2022-09-07T14:18:22.147Z,1014.37
2022-09-07T14:19:22.131Z,1014.33
2022-09-07T14:20:22.153Z,1014.39
2022-09-07T14:21:22.130Z,1014.34
2022-09-07T14:22:22.137Z,1014.32
2022-09-07T14:23:22.148Z,1014.32
2022-09-07T14:24:22.136Z,1014.27
2022-09-07T14:25:22.156Z,1014.28
2022-09-07T14:26:22.140Z,1014.28
2022-09-07T14:27:22.145Z,1014.21
2022-09-07T14:28:22.133Z,1014.19
2022-09-07T14:29:22.122Z,1014.23
2022-09-07T14:30:22.118Z,1014.19
2022-09-07T14:31:22.228Z,1014.13
2022-09-07T14:32:22.128Z,1014.15
2022-09-07T14:33:22.161Z,1014.19
2022-09-07T14:34:22.123Z,1014.13
2022-09-07T14:35:22.119Z,1014.08
2022-09-07T14:36:42.444Z,1014.05
2022-09-07T14:37:22.133Z,1014.07
2022-09-07T14:39:22.128Z,1014.12
2022-09-07T14:40:22.260Z,1014.12
2022-09-07T14:41:22.137Z,1014.13
2022-09-07T14:42:23.043Z,1014.12
2022-09-07T14:43:23.573Z,1014.07
2022-09-07T14:44:22.132Z,1014.05
2022-09-07T14:45:22.117Z,1014.04
2022-09-07T14:46:22.316Z,1013.98
2022-09-07T14:47:22.139Z,1013.96
2022-09-07T14:48:29.259Z,1013.92
2022-09-07T14:49:22.124Z,1013.93
2022-09-07T14:50:22.140Z,1013.91
2022-09-07T14:51:34.675Z,1013.95
2022-09-07T14:52:22.133Z,1013.95
2022-09-07T14:53:35.808Z,1013.99
2022-09-07T14:54:22.130Z,1014.09
2022-09-07T14:55:22.112Z,1014.09
2022-09-07T14:56:22.151Z,1014.14
2022-09-07T14:57:22.136Z,1014.18
2022-09-07T14:58:22.124Z,1014.17
2022-09-07T14:59:22.148Z,1014.28
2022-09-07T15:00:22.120Z,1014.26
2022-09-07T15:01:38.137Z,1014.22
2022-09-07T15:02:22.231Z,1014.21